sensor_id;sensor_type;location;lat;lon;timestamp;pressure;altitude;pressure_sealevel;temperature;humidity
9899;BME280;4988;49.238;6.698;2024-02-26T00:00:04;97085.19;;;7.65;98.77
9899;BME280;4988;49.238;6.698;2024-02-26T00:02:34;97081.19;;;7.59;100.00
9899;BME280;4988;49.238;6.698;2024-02-26T00:05:04;97087.84;;;7.52;100.00
9899;BME280;4988;49.238;6.698;2024-02-26T00:07:30;97080.31;;;7.46;100.00
9899;BME280;4988;49.238;6.698;2024-02-26T00:09:55;97078.19;;;7.51;100.00
9899;BME280;4988;49.238;6.698;2024-02-26T00:12:20;97083.59;;;7.49;100.00
9899;BME280;4988;49.238;6.698;2024-02-26T00:14:46;97078.72;;;7.43;100.00
9899;BME280;4988;49.238;6.698;2024-02-26T00:17:12;97080.84;;;7.38;100.00
9899;BME280;4988;49.238;6.698;2024-02-26T00:19:38;97080.06;;;7.36;100.00
9899;BME280;4988;49.238;6.698;2024-02-26T00:22:03;97074.31;;;7.29;100.00
9899;BME280;4988;49.238;6.698;2024-02-26T00:24:29;97065.66;;;7.27;100.00
9899;BME280;4988;49.238;6.698;2024-02-26T00:26:54;97074.13;;;7.19;100.00
9899;BME280;4988;49.238;6.698;2024-02-26T00:29:20;97086.28;;;7.22;100.00
9899;BME280;4988;49.238;6.698;2024-02-26T00:31:45;97088.28;;;7.18;100.00
9899;BME280;4988;49.238;6.698;2024-02-26T00:34:11;97089.34;;;7.16;100.00
9899;BME280;4988;49.238;6.698;2024-02-26T00:36:36;97085.28;;;7.10;100.00
9899;BME280;4988;49.238;6.698;2024-02-26T00:39:01;97087.94;;;7.10;100.00
9899;BME280;4988;49.238;6.698;2024-02-26T00:41:28;97073.22;;;7.06;100.00
9899;BME280;4988;49.238;6.698;2024-02-26T00:43:54;97073.00;;;7.09;100.00
9899;BME280;4988;49.238;6.698;2024-02-26T00:46:19;97078.81;;;7.01;100.00
9899;BME280;4988;49.238;6.698;2024-02-26T00:48:44;97075.28;;;7.01;100.00
9899;BME280;4988;49.238;6.698;2024-02-26T00:51:10;97073.69;;;6.98;100.00
9899;BME280;4988;49.238;6.698;2024-02-26T00:53:35;97078.97;;;6.98;100.00
9899;BME280;4988;49.238;6.698;2024-02-26T00:56:01;97082.25;;;6.89;100.00
9899;BME280;4988;49.238;6.698;2024-02-26T00:58:27;97077.06;;;6.87;100.00
9899;BME280;4988;49.238;6.698;2024-02-26T01:00:52;97076.94;;;6.89;100.00
9899;BME280;4988;49.238;6.698;2024-02-26T01:03:18;97072.50;;;6.89;100.00
9899;BME280;4988;49.238;6.698;2024-02-26T01:05:43;97072.41;;;6.91;100.00
9899;BME280;4988;49.238;6.698;2024-02-26T01:08:09;97072.59;;;6.88;100.00
9899;BME280;4988;49.238;6.698;2024-02-26T01:10:34;97065.50;;;6.88;100.00
9899;BME280;4988;49.238;6.698;2024-02-26T01:13:01;97059.88;;;6.80;100.00
9899;BME280;4988;49.238;6.698;2024-02-26T01:15:26;97072.06;;;6.83;100.00
9899;BME280;4988;49.238;6.698;2024-02-26T01:17:52;97065.84;;;6.84;100.00
9899;BME280;4988;49.238;6.698;2024-02-26T01:20:18;97054.78;;;6.77;100.00
9899;BME280;4988;49.238;6.698;2024-02-26T01:22:44;97052.13;;;6.77;100.00
9899;BME280;4988;49.238;6.698;2024-02-26T01:25:09;97053.59;;;6.68;100.00
9899;BME280;4988;49.238;6.698;2024-02-26T01:27:38;97051.69;;;6.70;100.00
9899;BME280;4988;49.238;6.698;2024-02-26T01:30:04;97051.69;;;6.70;100.00
9899;BME280;4988;49.238;6.698;2024-02-26T01:32:30;97055.28;;;6.69;100.00
9899;BME280;4988;49.238;6.698;2024-02-26T01:34:56;97058.88;;;6.68;100.00
9899;BME280;4988;49.238;6.698;2024-02-26T01:37:21;97056.34;;;6.67;100.00
9899;BME280;4988;49.238;6.698;2024-02-26T01:39:46;97053.47;;;6.70;100.00
9899;BME280;4988;49.238;6.698;2024-02-26T01:42:12;97043.44;;;6.75;100.00
9899;BME280;4988;49.238;6.698;2024-02-26T01:44:38;97044.22;;;6.77;100.00
9899;BME280;4988;49.238;6.698;2024-02-26T01:47:04;97042.59;;;6.74;100.00
9899;BME280;4988;49.238;6.698;2024-02-26T01:49:30;97039.41;;;6.69;100.00
9899;BME280;4988;49.238;6.698;2024-02-26T01:51:56;97039.59;;;6.66;100.00
9899;BME280;4988;49.238;6.698;2024-02-26T01:54:22;97045.94;;;6.64;100.00
9899;BME280;4988;49.238;6.698;2024-02-26T01:56:49;97044.06;;;6.66;100.00
9899;BME280;4988;49.238;6.698;2024-02-26T01:59:14;97047.53;;;6.66;100.00
9899;BME280;4988;49.238;6.698;2024-02-26T02:01:44;97039.94;;;6.62;100.00
9899;BME280;4988;49.238;6.698;2024-02-26T02:04:11;97046.22;;;6.59;100.00
9899;BME280;4988;49.238;6.698;2024-02-26T02:06:37;97036.63;;;6.58;100.00
9899;BME280;4988;49.238;6.698;2024-02-26T02:09:03;97037.06;;;6.65;100.00
9899;BME280;4988;49.238;6.698;2024-02-26T02:11:32;97021.31;;;6.63;100.00
9899;BME280;4988;49.238;6.698;2024-02-26T02:13:58;97023.97;;;6.63;100.00
9899;BME280;4988;49.238;6.698;2024-02-26T02:16:24;97025.66;;;6.64;100.00
9899;BME280;4988;49.238;6.698;2024-02-26T02:18:50;97030.94;;;6.64;100.00
9899;BME280;4988;49.238;6.698;2024-02-26T02:21:15;97025.00;;;6.60;100.00
9899;BME280;4988;49.238;6.698;2024-02-26T02:23:40;97027.53;;;6.62;100.00
9899;BME280;4988;49.238;6.698;2024-02-26T02:26:11;97032.66;;;6.65;100.00
9899;BME280;4988;49.238;6.698;2024-02-26T02:28:36;97027.25;;;6.67;100.00
9899;BME280;4988;49.238;6.698;2024-02-26T02:31:02;97021.97;;;6.67;100.00
9899;BME280;4988;49.238;6.698;2024-02-26T02:33:29;97036.31;;;6.63;100.00
9899;BME280;4988;49.238;6.698;2024-02-26T02:35:54;97040.94;;;6.59;100.00
9899;BME280;4988;49.238;6.698;2024-02-26T02:38:20;97031.53;;;6.55;100.00
9899;BME280;4988;49.238;6.698;2024-02-26T02:40:46;97024.13;;;6.60;100.00
9899;BME280;4988;49.238;6.698;2024-02-26T02:43:11;97027.09;;;6.55;100.00
9899;BME280;4988;49.238;6.698;2024-02-26T02:45:36;97027.94;;;6.56;100.00
9899;BME280;4988;49.238;6.698;2024-02-26T02:48:02;97030.75;;;6.53;100.00
9899;BME280;4988;49.238;6.698;2024-02-26T02:50:28;97030.03;;;6.51;100.00
9899;BME280;4988;49.238;6.698;2024-02-26T02:52:54;97030.75;;;6.53;100.00
9899;BME280;4988;49.238;6.698;2024-02-26T02:55:19;97048.72;;;6.48;100.00
9899;BME280;4988;49.238;6.698;2024-02-26T02:57:45;97045.72;;;6.39;100.00
9899;BME280;4988;49.238;6.698;2024-02-26T03:00:11;97038.53;;;6.41;100.00
9899;BME280;4988;49.238;6.698;2024-02-26T03:02:37;97049.38;;;6.37;100.00
9899;BME280;4988;49.238;6.698;2024-02-26T03:05:03;97055.06;;;6.31;100.00
9899;BME280;4988;49.238;6.698;2024-02-26T03:07:28;97050.53;;;6.47;100.00
9899;BME280;4988;49.238;6.698;2024-02-26T03:09:54;97050.31;;;6.50;100.00
9899;BME280;4988;49.238;6.698;2024-02-26T03:12:19;97054.56;;;6.53;100.00
9899;BME280;4988;49.238;6.698;2024-02-26T03:14:44;97050.03;;;6.55;100.00
9899;BME280;4988;49.238;6.698;2024-02-26T03:17:10;97045.22;;;6.62;100.00
9899;BME280;4988;49.238;6.698;2024-02-26T03:19:35;97043.50;;;6.60;100.00
9899;BME280;4988;49.238;6.698;2024-02-26T03:22:00;97048.50;;;6.65;100.00
9899;BME280;4988;49.238;6.698;2024-02-26T03:24:26;97043.22;;;6.65;100.00
9899;BME280;4988;49.238;6.698;2024-02-26T03:26:51;97040.47;;;6.67;100.00
9899;BME280;4988;49.238;6.698;2024-02-26T03:29:17;97039.59;;;6.66;100.00
9899;BME280;4988;49.238;6.698;2024-02-26T03:31:42;97043.00;;;6.68;100.00
9899;BME280;4988;49.238;6.698;2024-02-26T03:34:07;97041.66;;;6.75;100.00
9899;BME280;4988;49.238;6.698;2024-02-26T03:36:33;97041.13;;;6.70;100.00
9899;BME280;4988;49.238;6.698;2024-02-26T03:38:58;97045.16;;;6.76;100.00
9899;BME280;4988;49.238;6.698;2024-02-26T03:41:24;97047.78;;;6.76;100.00
9899;BME280;4988;49.238;6.698;2024-02-26T03:43:49;97047.47;;;6.68;100.00
9899;BME280;4988;49.238;6.698;2024-02-26T03:46:14;97042.72;;;6.73;100.00
9899;BME280;4988;49.238;6.698;2024-02-26T03:48:43;97050.94;;;6.68;100.00
9899;BME280;4988;49.238;6.698;2024-02-26T03:51:09;97055.69;;;6.63;100.00
9899;BME280;4988;49.238;6.698;2024-02-26T03:53:36;97057.47;;;6.63;100.00
9899;BME280;4988;49.238;6.698;2024-02-26T03:56:05;97052.63;;;6.69;100.00
9899;BME280;4988;49.238;6.698;2024-02-26T03:58:31;97057.00;;;6.70;100.00
9899;BME280;4988;49.238;6.698;2024-02-26T04:00:56;97059.53;;;6.72;100.00
9899;BME280;4988;49.238;6.698;2024-02-26T04:03:21;97049.78;;;6.72;100.00
9899;BME280;4988;49.238;6.698;2024-02-26T04:05:47;97064.53;;;6.76;100.00
9899;BME280;4988;49.238;6.698;2024-02-26T04:08:12;97057.94;;;6.69;100.00
9899;BME280;4988;49.238;6.698;2024-02-26T04:10:37;97059.41;;;6.73;100.00
9899;BME280;4988;49.238;6.698;2024-02-26T04:13:07;97056.22;;;6.68;100.00
9899;BME280;4988;49.238;6.698;2024-02-26T04:15:32;97060.19;;;6.75;100.00
9899;BME280;4988;49.238;6.698;2024-02-26T04:17:58;97056.13;;;6.70;100.00
9899;BME280;4988;49.238;6.698;2024-02-26T04:20:23;97063.97;;;6.71;100.00
9899;BME280;4988;49.238;6.698;2024-02-26T04:22:48;97057.56;;;6.61;100.00
9899;BME280;4988;49.238;6.698;2024-02-26T04:25:14;97061.34;;;6.57;100.00
9899;BME280;4988;49.238;6.698;2024-02-26T04:27:40;97058.44;;;6.62;100.00
9899;BME280;4988;49.238;6.698;2024-02-26T04:30:06;97064.56;;;6.62;100.00
9899;BME280;4988;49.238;6.698;2024-02-26T04:32:32;97072.38;;;6.64;100.00
9899;BME280;4988;49.238;6.698;2024-02-26T04:34:57;97076.63;;;6.66;100.00
9899;BME280;4988;49.238;6.698;2024-02-26T04:37:22;97073.78;;;6.69;100.00
9899;BME280;4988;49.238;6.698;2024-02-26T04:39:48;97077.59;;;6.65;100.00
9899;BME280;4988;49.238;6.698;2024-02-26T04:42:13;97072.19;;;6.67;100.00
9899;BME280;4988;49.238;6.698;2024-02-26T04:44:39;97070.53;;;6.79;100.00
9899;BME280;4988;49.238;6.698;2024-02-26T04:47:04;97071.50;;;6.78;100.00
9899;BME280;4988;49.238;6.698;2024-02-26T04:49:30;97069.19;;;6.86;100.00
9899;BME280;4988;49.238;6.698;2024-02-26T04:51:55;97072.59;;;6.88;100.00
9899;BME280;4988;49.238;6.698;2024-02-26T04:54:20;97067.09;;;6.91;100.00
9899;BME280;4988;49.238;6.698;2024-02-26T04:56:46;97070.41;;;6.95;100.00
9899;BME280;4988;49.238;6.698;2024-02-26T04:59:11;97070.09;;;6.99;100.00
9899;BME280;4988;49.238;6.698;2024-02-26T05:01:37;97069.56;;;6.94;100.00
9899;BME280;4988;49.238;6.698;2024-02-26T05:04:02;97076.00;;;6.90;100.00
9899;BME280;4988;49.238;6.698;2024-02-26T05:06:30;97074.03;;;6.94;100.00
9899;BME280;4988;49.238;6.698;2024-02-26T05:08:56;97077.59;;;6.92;100.00
9899;BME280;4988;49.238;6.698;2024-02-26T05:11:21;97082.13;;;6.90;100.00
9899;BME280;4988;49.238;6.698;2024-02-26T05:13:47;97075.63;;;6.96;100.00
9899;BME280;4988;49.238;6.698;2024-02-26T05:16:13;97076.34;;;6.98;100.00
9899;BME280;4988;49.238;6.698;2024-02-26T05:18:38;97083.94;;;6.90;100.00
9899;BME280;4988;49.238;6.698;2024-02-26T05:21:04;97081.38;;;6.88;100.00
9899;BME280;4988;49.238;6.698;2024-02-26T05:23:29;97085.94;;;6.86;100.00
9899;BME280;4988;49.238;6.698;2024-02-26T05:25:55;97086.34;;;6.80;100.00
9899;BME280;4988;49.238;6.698;2024-02-26T05:28:20;97087.44;;;6.90;100.00
9899;BME280;4988;49.238;6.698;2024-02-26T05:30:46;97089.63;;;6.84;100.00
9899;BME280;4988;49.238;6.698;2024-02-26T05:33:11;97087.72;;;6.86;100.00
9899;BME280;4988;49.238;6.698;2024-02-26T05:35:37;97092.81;;;6.89;100.00
9899;BME280;4988;49.238;6.698;2024-02-26T05:38:02;97091.94;;;6.88;100.00
9899;BME280;4988;49.238;6.698;2024-02-26T05:40:28;97081.59;;;6.85;100.00
9899;BME280;4988;49.238;6.698;2024-02-26T05:42:54;97088.75;;;6.83;100.00
9899;BME280;4988;49.238;6.698;2024-02-26T05:45:19;97087.00;;;6.84;100.00
9899;BME280;4988;49.238;6.698;2024-02-26T05:47:46;97084.13;;;6.87;100.00
9899;BME280;4988;49.238;6.698;2024-02-26T05:50:11;97100.00;;;6.87;100.00
9899;BME280;4988;49.238;6.698;2024-02-26T05:52:37;97107.56;;;6.79;100.00
9899;BME280;4988;49.238;6.698;2024-02-26T05:55:06;97108.97;;;6.84;100.00
9899;BME280;4988;49.238;6.698;2024-02-26T05:57:33;97110.88;;;6.82;100.00
9899;BME280;4988;49.238;6.698;2024-02-26T05:59:58;97109.91;;;6.83;100.00
9899;BME280;4988;49.238;6.698;2024-02-26T06:02:29;97104.34;;;6.88;100.00
9899;BME280;4988;49.238;6.698;2024-02-26T06:05:00;97112.28;;;6.88;100.00
9899;BME280;4988;49.238;6.698;2024-02-26T06:07:37;97118.22;;;6.91;100.00
9899;BME280;4988;49.238;6.698;2024-02-26T06:10:03;97119.16;;;6.90;100.00
9899;BME280;4988;49.238;6.698;2024-02-26T06:12:30;97123.03;;;6.85;100.00
9899;BME280;4988;49.238;6.698;2024-02-26T06:14:56;97124.19;;;6.81;100.00
9899;BME280;4988;49.238;6.698;2024-02-26T06:17:21;97119.44;;;6.86;100.00
9899;BME280;4988;49.238;6.698;2024-02-26T06:19:46;97125.59;;;6.86;100.00
9899;BME280;4988;49.238;6.698;2024-02-26T06:22:12;97128.53;;;6.82;100.00
9899;BME280;4988;49.238;6.698;2024-02-26T06:24:37;97129.69;;;6.78;100.00
9899;BME280;4988;49.238;6.698;2024-02-26T06:27:03;97133.81;;;6.82;100.00
9899;BME280;4988;49.238;6.698;2024-02-26T06:29:28;97140.81;;;6.83;100.00
9899;BME280;4988;49.238;6.698;2024-02-26T06:31:53;97141.94;;;6.79;100.00
9899;BME280;4988;49.238;6.698;2024-02-26T06:34:19;97140.59;;;6.86;100.00
9899;BME280;4988;49.238;6.698;2024-02-26T06:36:44;97141.53;;;6.85;100.00
9899;BME280;4988;49.238;6.698;2024-02-26T06:39:09;97139.78;;;6.85;100.00
9899;BME280;4988;49.238;6.698;2024-02-26T06:41:36;97135.53;;;6.83;100.00
9899;BME280;4988;49.238;6.698;2024-02-26T06:44:01;97146.56;;;6.89;100.00
9899;BME280;4988;49.238;6.698;2024-02-26T06:46:27;97143.25;;;6.86;100.00
9899;BME280;4988;49.238;6.698;2024-02-26T06:48:55;97154.97;;;6.82;100.00
9899;BME280;4988;49.238;6.698;2024-02-26T06:51:21;97174.97;;;6.86;100.00
9899;BME280;4988;49.238;6.698;2024-02-26T06:53:47;97181.53;;;6.80;100.00
9899;BME280;4988;49.238;6.698;2024-02-26T06:56:12;97192.84;;;6.82;100.00
9899;BME280;4988;49.238;6.698;2024-02-26T06:58:37;97188.41;;;6.83;100.00
9899;BME280;4988;49.238;6.698;2024-02-26T07:01:03;97199.16;;;6.80;100.00
9899;BME280;4988;49.238;6.698;2024-02-26T07:03:28;97201.16;;;6.76;100.00
9899;BME280;4988;49.238;6.698;2024-02-26T07:05:54;97204.84;;;6.73;100.00
9899;BME280;4988;49.238;6.698;2024-02-26T07:08:20;97210.63;;;6.80;100.00
9899;BME280;4988;49.238;6.698;2024-02-26T07:10:46;97205.50;;;6.77;100.00
9899;BME280;4988;49.238;6.698;2024-02-26T07:13:11;97216.56;;;6.84;100.00
9899;BME280;4988;49.238;6.698;2024-02-26T07:15:37;97220.06;;;6.84;100.00
9899;BME280;4988;49.238;6.698;2024-02-26T07:18:02;97221.47;;;6.90;100.00
9899;BME280;4988;49.238;6.698;2024-02-26T07:20:29;97214.66;;;6.86;100.00
9899;BME280;4988;49.238;6.698;2024-02-26T07:22:55;97215.59;;;6.85;100.00
9899;BME280;4988;49.238;6.698;2024-02-26T07:25:21;97216.84;;;6.94;100.00
9899;BME280;4988;49.238;6.698;2024-02-26T07:27:46;97221.47;;;6.90;100.00
9899;BME280;4988;49.238;6.698;2024-02-26T07:30:12;97211.72;;;6.90;100.00
9899;BME280;4988;49.238;6.698;2024-02-26T07:32:37;97219.56;;;6.92;100.00
9899;BME280;4988;49.238;6.698;2024-02-26T07:35:03;97222.97;;;6.94;100.00
9899;BME280;4988;49.238;6.698;2024-02-26T07:37:29;97229.97;;;6.95;100.00
9899;BME280;4988;49.238;6.698;2024-02-26T07:39:54;97227.22;;;6.97;100.00
9899;BME280;4988;49.238;6.698;2024-02-26T07:42:19;97224.66;;;7.10;100.00
9899;BME280;4988;49.238;6.698;2024-02-26T07:44:45;97225.22;;;7.15;100.00
9899;BME280;4988;49.238;6.698;2024-02-26T07:47:10;97221.03;;;7.25;100.00
9899;BME280;4988;49.238;6.698;2024-02-26T07:49:35;97224.63;;;7.24;100.00
9899;BME280;4988;49.238;6.698;2024-02-26T07:52:01;97229.06;;;7.23;100.00
9899;BME280;4988;49.238;6.698;2024-02-26T07:54:26;97225.16;;;7.29;100.00
9899;BME280;4988;49.238;6.698;2024-02-26T07:56:51;97233.88;;;7.31;100.00
9899;BME280;4988;49.238;6.698;2024-02-26T07:59:17;97237.28;;;7.33;100.00
9899;BME280;4988;49.238;6.698;2024-02-26T08:01:42;97235.56;;;7.32;100.00
9899;BME280;4988;49.238;6.698;2024-02-26T08:04:08;97240.47;;;7.38;100.00
9899;BME280;4988;49.238;6.698;2024-02-26T08:06:33;97242.06;;;7.41;100.00
9899;BME280;4988;49.238;6.698;2024-02-26T08:08:59;97244.03;;;7.52;100.00
9899;BME280;4988;49.238;6.698;2024-02-26T08:11:24;97242.16;;;7.54;100.00
9899;BME280;4988;49.238;6.698;2024-02-26T08:13:49;97240.16;;;7.57;100.00
9899;BME280;4988;49.238;6.698;2024-02-26T08:16:15;97253.56;;;7.54;100.00
9899;BME280;4988;49.238;6.698;2024-02-26T08:18:40;97252.34;;;7.60;100.00
9899;BME280;4988;49.238;6.698;2024-02-26T08:21:05;97265.38;;;7.63;100.00
9899;BME280;4988;49.238;6.698;2024-02-26T08:23:31;97262.72;;;7.63;100.00
9899;BME280;4988;49.238;6.698;2024-02-26T08:25:57;97265.25;;;7.65;100.00
9899;BME280;4988;49.238;6.698;2024-02-26T08:28:22;97256.19;;;7.69;100.00
9899;BME280;4988;49.238;6.698;2024-02-26T08:30:47;97266.28;;;7.77;100.00
9899;BME280;4988;49.238;6.698;2024-02-26T08:33:13;97260.44;;;7.71;100.00
9899;BME280;4988;49.238;6.698;2024-02-26T08:35:38;97256.22;;;7.82;100.00
9899;BME280;4988;49.238;6.698;2024-02-26T08:38:04;97249.78;;;7.86;100.00
9899;BME280;4988;49.238;6.698;2024-02-26T08:40:29;97255.22;;;7.97;100.00
9899;BME280;4988;49.238;6.698;2024-02-26T08:42:55;97266.47;;;8.01;100.00
9899;BME280;4988;49.238;6.698;2024-02-26T08:45:21;97270.91;;;8.00;100.00
9899;BME280;4988;49.238;6.698;2024-02-26T08:47:46;97286.41;;;8.07;100.00
9899;BME280;4988;49.238;6.698;2024-02-26T08:50:12;97287.56;;;8.02;100.00
9899;BME280;4988;49.238;6.698;2024-02-26T08:52:38;97289.16;;;8.05;100.00
9899;BME280;4988;49.238;6.698;2024-02-26T08:55:03;97288.97;;;8.08;100.00
9899;BME280;4988;49.238;6.698;2024-02-26T08:57:30;97283.34;;;8.13;100.00
9899;BME280;4988;49.238;6.698;2024-02-26T08:59:57;97282.00;;;8.20;100.00
9899;BME280;4988;49.238;6.698;2024-02-26T09:02:23;97277.16;;;8.27;100.00
9899;BME280;4988;49.238;6.698;2024-02-26T09:04:48;97288.41;;;8.30;100.00
9899;BME280;4988;49.238;6.698;2024-02-26T09:07:13;97292.31;;;8.37;100.00
9899;BME280;4988;49.238;6.698;2024-02-26T09:09:39;97282.28;;;8.43;100.00
9899;BME280;4988;49.238;6.698;2024-02-26T09:12:04;97283.78;;;8.47;100.00
9899;BME280;4988;49.238;6.698;2024-02-26T09:14:30;97291.84;;;8.58;100.00
9899;BME280;4988;49.238;6.698;2024-02-26T09:16:55;97291.53;;;8.63;100.00
9899;BME280;4988;49.238;6.698;2024-02-26T09:19:20;97294.19;;;8.63;100.00
9899;BME280;4988;49.238;6.698;2024-02-26T09:21:46;97283.81;;;8.73;100.00
9899;BME280;4988;49.238;6.698;2024-02-26T09:24:12;97291.97;;;8.69;100.00
9899;BME280;4988;49.238;6.698;2024-02-26T09:26:38;97291.00;;;8.71;100.00
9899;BME280;4988;49.238;6.698;2024-02-26T09:29:03;97292.28;;;8.78;100.00
9899;BME280;4988;49.238;6.698;2024-02-26T09:31:29;97305.44;;;8.79;100.00
9899;BME280;4988;49.238;6.698;2024-02-26T09:33:55;97310.56;;;8.82;100.00
9899;BME280;4988;49.238;6.698;2024-02-26T09:36:20;97309.38;;;8.87;100.00
9899;BME280;4988;49.238;6.698;2024-02-26T09:38:46;97308.94;;;8.93;100.00
9899;BME280;4988;49.238;6.698;2024-02-26T09:41:14;97314.25;;;8.93;100.00
9899;BME280;4988;49.238;6.698;2024-02-26T09:43:44;97310.78;;;8.92;100.00
9899;BME280;4988;49.238;6.698;2024-02-26T09:46:10;97320.22;;;8.96;100.00
9899;BME280;4988;49.238;6.698;2024-02-26T09:48:37;97318.19;;;9.00;100.00
9899;BME280;4988;49.238;6.698;2024-02-26T09:51:03;97318.72;;;9.05;100.00
9899;BME280;4988;49.238;6.698;2024-02-26T09:53:30;97318.41;;;9.10;100.00
9899;BME280;4988;49.238;6.698;2024-02-26T09:56:00;97323.09;;;9.19;100.00
9899;BME280;4988;49.238;6.698;2024-02-26T09:58:28;97326.56;;;9.20;100.00
9899;BME280;4988;49.238;6.698;2024-02-26T10:00:56;97321.47;;;9.29;100.00
9899;BME280;4988;49.238;6.698;2024-02-26T10:03:28;97328.44;;;9.43;100.00
9899;BME280;4988;49.238;6.698;2024-02-26T10:05:55;97321.63;;;9.52;100.00
9899;BME280;4988;49.238;6.698;2024-02-26T10:08:22;97318.78;;;9.55;100.00
9899;BME280;4988;49.238;6.698;2024-02-26T10:10:48;97320.03;;;9.62;100.00
9899;BME280;4988;49.238;6.698;2024-02-26T10:13:14;97314.03;;;9.72;100.00
9899;BME280;4988;49.238;6.698;2024-02-26T10:15:40;97321.38;;;9.81;100.00
9899;BME280;4988;49.238;6.698;2024-02-26T10:18:06;97325.94;;;9.79;100.00
9899;BME280;4988;49.238;6.698;2024-02-26T10:20:32;97335.03;;;9.88;100.00
9899;BME280;4988;49.238;6.698;2024-02-26T10:22:58;97328.66;;;9.90;100.00
9899;BME280;4988;49.238;6.698;2024-02-26T10:25:23;97332.47;;;9.99;100.00
9899;BME280;4988;49.238;6.698;2024-02-26T10:27:49;97339.25;;;10.03;100.00
9899;BME280;4988;49.238;6.698;2024-02-26T10:30:21;97338.19;;;10.06;100.00
9899;BME280;4988;49.238;6.698;2024-02-26T10:32:48;97343.34;;;10.20;100.00
9899;BME280;4988;49.238;6.698;2024-02-26T10:35:14;97348.31;;;10.25;100.00
9899;BME280;4988;49.238;6.698;2024-02-26T10:37:41;97342.31;;;10.34;100.00
9899;BME280;4988;49.238;6.698;2024-02-26T10:40:10;97348.16;;;10.39;100.00
9899;BME280;4988;49.238;6.698;2024-02-26T10:42:35;97351.94;;;10.48;100.00
9899;BME280;4988;49.238;6.698;2024-02-26T10:45:00;97357.78;;;10.53;100.00
9899;BME280;4988;49.238;6.698;2024-02-26T10:47:28;97358.00;;;10.50;100.00
9899;BME280;4988;49.238;6.698;2024-02-26T10:49:54;97362.75;;;10.58;100.00
9899;BME280;4988;49.238;6.698;2024-02-26T10:52:20;97364.16;;;10.51;100.00
9899;BME280;4988;49.238;6.698;2024-02-26T10:54:47;97372.03;;;10.52;100.00
9899;BME280;4988;49.238;6.698;2024-02-26T10:57:15;97372.53;;;10.57;100.00
9899;BME280;4988;49.238;6.698;2024-02-26T10:59:44;97380.91;;;10.64;100.00
9899;BME280;4988;49.238;6.698;2024-02-26T11:02:10;97383.97;;;10.71;100.00
9899;BME280;4988;49.238;6.698;2024-02-26T11:04:37;97389.91;;;10.74;100.00
9899;BME280;4988;49.238;6.698;2024-02-26T11:07:04;97387.47;;;10.71;100.00
9899;BME280;4988;49.238;6.698;2024-02-26T11:09:30;97384.47;;;10.76;100.00
9899;BME280;4988;49.238;6.698;2024-02-26T11:11:57;97384.75;;;10.84;100.00
9899;BME280;4988;49.238;6.698;2024-02-26T11:14:24;97385.72;;;10.83;100.00
9899;BME280;4988;49.238;6.698;2024-02-26T11:16:51;97394.44;;;10.85;100.00
9899;BME280;4988;49.238;6.698;2024-02-26T11:19:16;97399.75;;;10.85;100.00
9899;BME280;4988;49.238;6.698;2024-02-26T11:21:43;97396.97;;;10.87;100.00
9899;BME280;4988;49.238;6.698;2024-02-26T11:24:12;97399.97;;;10.82;100.00
9899;BME280;4988;49.238;6.698;2024-02-26T11:26:42;97402.28;;;10.87;100.00
9899;BME280;4988;49.238;6.698;2024-02-26T11:29:11;97402.03;;;10.90;100.00
9899;BME280;4988;49.238;6.698;2024-02-26T11:31:38;97408.25;;;10.90;100.00
9899;BME280;4988;49.238;6.698;2024-02-26T11:34:07;97409.31;;;10.88;100.00
9899;BME280;4988;49.238;6.698;2024-02-26T11:36:32;97406.75;;;10.86;100.00
9899;BME280;4988;49.238;6.698;2024-02-26T11:38:58;97400.81;;;10.83;100.00
9899;BME280;4988;49.238;6.698;2024-02-26T11:41:23;97401.44;;;10.86;100.00
9899;BME280;4988;49.238;6.698;2024-02-26T11:43:53;97404.50;;;10.93;100.00
9899;BME280;4988;49.238;6.698;2024-02-26T11:46:31;97401.25;;;11.01;100.00
9899;BME280;4988;49.238;6.698;2024-02-26T11:49:02;97400.63;;;10.97;100.00
9899;BME280;4988;49.238;6.698;2024-02-26T11:51:32;97396.38;;;10.94;100.00
9899;BME280;4988;49.238;6.698;2024-02-26T11:53:58;97398.81;;;10.98;100.00
9899;BME280;4988;49.238;6.698;2024-02-26T11:56:24;97397.00;;;10.98;100.00
9899;BME280;4988;49.238;6.698;2024-02-26T11:59:02;97400.03;;;11.05;100.00
9899;BME280;4988;49.238;6.698;2024-02-26T12:01:40;97402.59;;;11.06;100.00
9899;BME280;4988;49.238;6.698;2024-02-26T12:04:13;97398.97;;;11.07;100.00
9899;BME280;4988;49.238;6.698;2024-02-26T12:09:07;97410.22;;;11.11;100.00
9899;BME280;4988;49.238;6.698;2024-02-26T12:11:37;97406.50;;;11.14;100.00
9899;BME280;4988;49.238;6.698;2024-02-26T12:14:03;97403.44;;;11.07;100.00
9899;BME280;4988;49.238;6.698;2024-02-26T12:16:37;97417.25;;;11.12;100.00
9899;BME280;4988;49.238;6.698;2024-02-26T12:19:04;97401.16;;;11.14;100.00
9899;BME280;4988;49.238;6.698;2024-02-26T12:21:30;97404.06;;;11.10;100.00
9899;BME280;4988;49.238;6.698;2024-02-26T12:23:55;97402.50;;;11.19;100.00
9899;BME280;4988;49.238;6.698;2024-02-26T12:26:21;97408.31;;;11.24;100.00
9899;BME280;4988;49.238;6.698;2024-02-26T12:28:47;97413.16;;;11.31;100.00
9899;BME280;4988;49.238;6.698;2024-02-26T12:31:12;97412.34;;;11.41;100.00
9899;BME280;4988;49.238;6.698;2024-02-26T12:33:38;97414.41;;;11.49;100.00
9899;BME280;4988;49.238;6.698;2024-02-26T12:36:06;97410.53;;;11.53;100.00
9899;BME280;4988;49.238;6.698;2024-02-26T12:38:32;97403.03;;;11.58;100.00
9899;BME280;4988;49.238;6.698;2024-02-26T12:40:59;97402.31;;;11.68;100.00
9899;BME280;4988;49.238;6.698;2024-02-26T12:43:25;97395.63;;;11.73;100.00
9899;BME280;4988;49.238;6.698;2024-02-26T12:45:51;97396.97;;;11.79;100.00
9899;BME280;4988;49.238;6.698;2024-02-26T12:48:16;97401.34;;;11.80;100.00
9899;BME280;4988;49.238;6.698;2024-02-26T12:50:45;97400.13;;;11.84;100.00
9899;BME280;4988;49.238;6.698;2024-02-26T12:53:12;97405.59;;;11.83;100.00
9899;BME280;4988;49.238;6.698;2024-02-26T12:55:37;97407.88;;;11.87;100.00
9899;BME280;4988;49.238;6.698;2024-02-26T12:58:05;97398.41;;;11.95;100.00
9899;BME280;4988;49.238;6.698;2024-02-26T13:00:31;97404.03;;;12.03;100.00
9899;BME280;4988;49.238;6.698;2024-02-26T13:02:59;97403.53;;;11.98;100.00
9899;BME280;4988;49.238;6.698;2024-02-26T13:05:25;97405.72;;;11.93;100.00
9899;BME280;4988;49.238;6.698;2024-02-26T13:07:50;97416.25;;;11.83;100.00
9899;BME280;4988;49.238;6.698;2024-02-26T13:10:18;97418.78;;;11.84;100.00
9899;BME280;4988;49.238;6.698;2024-02-26T13:12:45;97423.78;;;11.78;100.00
9899;BME280;4988;49.238;6.698;2024-02-26T13:15:15;97428.38;;;11.75;100.00